Topley, Canada
Current Conditions -  °F | °C
As of 7:41 AM on Saturday 25 Oct 2014 (Local Time) from CYYD Reporting Station
Moderate Fog Moderate Fog  
Wind Chill: 30°   Ceiling: 7000
Heat Index: 30°   Visibility: 25mi
Dew Point: 30°   Wind: 0mph
Humidity: 100%   Direction: NA
Pressure: 29.74"   Gusts: NA
Location:  54.52°N, 126.3°W
Report Text: CYYD 251441Z 00000KT 25SM VCFG FEW001 BKN070 M01/M01 A2974 RMK SF1AC4 VIS LWR SE-SW SLP089
Loading
Personal Weather Stations






























Interactive Weather Map
Tropical Storm Tracking
New forecast layout! Learn more

10-Day Weather Forecast

Advertisements
Track Severe Weather on mobile